createdAt,value
2022-12-23T00:01:51.256Z,94967.97
2022-12-23T00:04:18.285Z,94974.69
2022-12-23T00:06:45.238Z,94970.41
2022-12-23T00:09:12.202Z,94972.03
2022-12-23T00:11:58.973Z,94980.41
2022-12-23T00:14:46.465Z,94987.13
2022-12-23T00:17:28.334Z,94971.84
2022-12-23T00:19:55.360Z,94976.94
2022-12-23T00:22:42.132Z,94976.72
2022-12-23T00:25:09.381Z,94982.66
2022-12-23T00:27:37.827Z,94985.72
2022-12-23T00:30:07.253Z,94992.22
2022-12-23T00:32:34.260Z,94987.53
2022-12-23T00:35:01.069Z,94991.81
2022-12-23T00:37:31.837Z,94986.84
2022-12-23T00:40:17.100Z,94983.50
2022-12-23T00:42:55.728Z,94985.63
2022-12-23T00:45:22.747Z,94984.53
2022-12-23T00:48:08.364Z,94979.81
2022-12-23T00:50:39.581Z,94964.53
2022-12-23T00:53:06.989Z,94962.50
2022-12-23T00:55:33.838Z,94975.34
2022-12-23T00:58:00.763Z,94982.88
2022-12-23T01:00:46.702Z,94984.91
2022-12-23T01:03:34.072Z,94988.09
2022-12-23T01:06:02.602Z,94988.09
2022-12-23T01:08:29.885Z,94975.25
2022-12-23T01:10:56.824Z,94982.69
2022-12-23T01:13:23.788Z,94963.94
2022-12-23T01:15:50.589Z,94968.59
2022-12-23T01:18:17.389Z,94973.47
2022-12-23T01:20:44.226Z,94970.94
2022-12-23T01:23:10.999Z,94957.38
2022-12-23T01:25:37.848Z,94982.34
2022-12-23T01:28:04.783Z,94978.97
2022-12-23T01:30:31.571Z,94972.97
2022-12-23T01:32:58.421Z,94968.69
2022-12-23T01:35:25.252Z,94984.19
2022-12-23T01:37:52.050Z,94976.88
2022-12-23T01:40:18.955Z,94961.69
2022-12-23T01:42:47.395Z,94948.22
2022-12-23T01:45:20.581Z,94952.78
2022-12-23T01:48:06.261Z,94946.56
2022-12-23T01:50:43.124Z,94948.91
2022-12-23T01:53:15.911Z,94945.63
2022-12-23T01:55:54.583Z,94928.00
2022-12-23T01:58:27.899Z,94936.00
2022-12-23T02:01:15.885Z,94928.66
2022-12-23T02:03:44.163Z,94924.47
2022-12-23T02:06:42.918Z,94931.00
2022-12-23T02:09:22.536Z,94927.09
2022-12-23T02:12:10.408Z,94919.03
2022-12-23T02:15:14.430Z,94913.81
2022-12-23T02:17:56.150Z,94911.88
2022-12-23T02:20:44.049Z,94903.06
2022-12-23T02:23:35.731Z,94904.50
2022-12-23T02:26:21.365Z,94913.56
2022-12-23T02:29:32.742Z,94914.06
2022-12-23T02:32:26.072Z,94908.50
2022-12-23T02:35:34.764Z,94911.56
2022-12-23T02:38:16.539Z,94900.84
2022-12-23T02:41:04.892Z,94903.09
2022-12-23T02:43:46.337Z,94895.75
2022-12-23T02:46:39.463Z,94913.84
2022-12-23T02:49:15.432Z,94899.91
2022-12-23T02:51:46.700Z,94922.53
2022-12-23T02:54:18.789Z,94914.28
2022-12-23T02:56:50.228Z,94902.66
2022-12-23T02:59:22.155Z,94912.25
2022-12-23T04:43:06.698Z,94894.34
2022-12-23T04:45:33.504Z,94898.69
2022-12-23T04:48:00.382Z,94917.84
2022-12-23T04:50:27.233Z,94908.06
2022-12-23T04:52:54.100Z,94911.69
2022-12-23T04:55:20.956Z,94905.56
2022-12-23T04:57:47.877Z,94907.50
2022-12-23T05:00:15.210Z,94915.97
2022-12-23T05:02:42.117Z,94938.25
2022-12-23T05:05:09.203Z,94933.03
2022-12-23T07:26:23.383Z,94974.38
2022-12-23T07:28:50.225Z,94962.78
2022-12-23T07:31:17.209Z,94966.44
2022-12-23T07:33:44.163Z,94963.91
2022-12-23T07:36:11.067Z,94963.63
2022-12-23T07:38:38.104Z,94970.13
2022-12-23T07:41:05.077Z,94978.22
2022-12-23T07:43:32.171Z,94977.84
2022-12-23T07:46:00.684Z,94977.84
2022-12-23T07:48:28.347Z,94974.84
2022-12-23T07:51:01.139Z,94969.72
2022-12-23T07:53:28.445Z,94972.94
2022-12-23T07:55:56.770Z,94970.81
2022-12-23T07:58:24.405Z,94974.19
2022-12-23T08:00:51.283Z,94971.91
2022-12-23T08:03:18.211Z,94977.50
2022-12-23T08:05:45.265Z,94971.75
2022-12-23T08:08:12.780Z,94975.28
2022-12-23T08:10:46.185Z,94968.03
2022-12-23T08:13:15.347Z,94972.63
2022-12-23T08:15:42.140Z,94974.53
2022-12-23T08:18:09.063Z,94972.91
2022-12-23T08:20:36.061Z,94977.25
2022-12-23T08:23:02.908Z,94974.13
2022-12-23T08:25:29.874Z,94985.34
2022-12-23T08:27:56.687Z,94979.78
2022-12-23T08:30:23.573Z,94987.25
2022-12-23T08:32:50.505Z,94978.03
2022-12-23T08:35:17.473Z,94979.16
2022-12-23T08:37:44.464Z,94970.06
2022-12-23T08:40:12.219Z,94971.56
2022-12-23T08:42:39.171Z,94974.53
2022-12-23T08:45:06.388Z,94973.03
2022-12-23T08:47:34.779Z,94973.44
2022-12-23T08:50:01.681Z,94970.34
2022-12-23T08:52:28.624Z,94966.69
2022-12-23T08:54:55.492Z,94966.56
2022-12-23T08:57:22.287Z,94970.59
2022-12-23T08:59:49.207Z,94955.56
2022-12-23T09:02:16.561Z,94967.06
2022-12-23T09:04:43.577Z,94956.78
2022-12-23T09:07:10.399Z,94964.97
2022-12-23T09:09:38.251Z,94973.53
2022-12-23T09:12:05.330Z,94964.03
2022-12-23T09:14:32.167Z,94965.41
2022-12-23T09:16:59.117Z,94957.59
2022-12-23T09:19:26.075Z,94960.28
2022-12-23T09:21:52.946Z,94962.47
2022-12-23T09:24:19.827Z,94960.94
2022-12-23T09:26:46.688Z,94956.38
2022-12-23T09:29:13.615Z,94958.84
2022-12-23T09:31:40.620Z,94958.69
2022-12-23T09:34:07.524Z,94958.28
2022-12-23T09:36:34.478Z,94968.81
2022-12-23T09:39:01.429Z,94964.78
2022-12-23T09:41:39.203Z,94956.09
2022-12-23T09:44:26.737Z,94951.25
2022-12-23T09:47:04.753Z,94957.47
2022-12-23T09:49:32.811Z,94955.56
2022-12-23T09:52:05.322Z,94955.25
2022-12-23T09:54:47.706Z,94950.63
2022-12-23T09:57:21.444Z,94957.75
2022-12-23T10:00:23.965Z,94956.53
2022-12-23T10:03:09.577Z,94953.56
2022-12-23T10:05:40.606Z,94950.34
2022-12-23T10:08:16.696Z,94949.78
2022-12-23T10:10:48.674Z,94938.13
2022-12-23T10:13:25.227Z,94939.47
2022-12-23T10:15:53.206Z,94926.25
2022-12-23T10:18:41.552Z,94929.63
2022-12-23T10:21:17.903Z,94926.78
2022-12-23T10:23:50.471Z,94922.44
2022-12-23T10:26:26.184Z,94917.81
2022-12-23T10:29:08.501Z,94920.75
2022-12-23T10:31:56.870Z,94917.22
2022-12-23T10:34:58.953Z,94910.31
2022-12-23T10:37:41.934Z,94917.03
2022-12-23T10:40:17.956Z,94911.63
2022-12-23T10:43:07.846Z,94909.50
2022-12-23T10:45:44.048Z,94899.31
2022-12-23T10:48:33.078Z,94907.94
2022-12-23T10:51:17.586Z,94897.53
2022-12-23T10:53:59.355Z,94897.78
2022-12-23T10:56:28.347Z,94896.00
2022-12-23T10:58:57.999Z,94888.91
2022-12-23T11:01:27.432Z,94891.19
2022-12-23T11:04:00.702Z,94889.06
2022-12-23T11:06:33.253Z,94891.50
2022-12-23T11:09:05.415Z,94885.38
2022-12-23T11:12:00.277Z,94886.03
2022-12-23T11:14:51.536Z,94882.78
2022-12-23T11:17:22.998Z,94880.34
2022-12-23T11:20:12.911Z,94879.19
2022-12-23T11:23:07.180Z,94892.38
2022-12-23T11:25:42.888Z,94891.75
2022-12-23T11:28:12.570Z,94898.94
2022-12-23T11:31:01.232Z,94901.19
2022-12-23T11:33:34.449Z,94896.63
2022-12-23T11:36:02.975Z,94889.22
2022-12-23T11:38:30.168Z,94893.69
2022-12-23T11:40:57.779Z,94890.19
2022-12-23T11:43:26.734Z,94900.66
2022-12-23T11:46:17.723Z,94898.78
2022-12-23T11:48:51.319Z,94901.19
2022-12-23T11:51:25.841Z,94857.00
2022-12-23T11:54:00.051Z,94895.69
2022-12-23T11:56:28.640Z,94889.72
2022-12-23T11:59:05.422Z,94873.69
2022-12-23T12:01:32.807Z,94874.09
2022-12-23T12:04:20.834Z,94880.78
2022-12-23T12:06:56.350Z,94869.56
2022-12-23T12:09:25.167Z,94879.00
2022-12-23T12:12:03.828Z,94864.69
2022-12-23T12:14:48.577Z,94865.56
2022-12-23T12:17:33.489Z,94867.94
2022-12-23T12:20:39.244Z,94860.41
2022-12-23T12:23:21.539Z,94846.22
2022-12-23T12:26:03.010Z,94855.28
2022-12-23T12:28:39.028Z,94854.66
2022-12-23T12:31:15.572Z,94855.63
2022-12-23T12:33:51.179Z,94844.19
2022-12-23T12:36:32.971Z,94853.09
2022-12-23T12:39:00.443Z,94852.78
2022-12-23T12:41:48.508Z,94847.44
2022-12-23T12:44:43.314Z,94854.53
2022-12-23T12:47:44.813Z,94856.66
2022-12-23T12:50:11.687Z,94856.84
2022-12-23T12:52:42.082Z,94855.72
2022-12-23T12:55:22.998Z,94851.69
2022-12-23T12:57:49.892Z,94845.53
2022-12-23T13:00:19.508Z,94842.16
2022-12-23T13:03:01.602Z,94844.59
2022-12-23T13:05:56.791Z,94846.59
2022-12-23T13:08:51.339Z,94840.22
2022-12-23T13:11:28.981Z,94839.78
2022-12-23T13:14:12.727Z,94830.09
2022-12-23T13:16:52.772Z,94834.72
2022-12-23T13:19:42.543Z,94831.81
2022-12-23T13:22:15.425Z,94830.44
2022-12-23T13:24:55.178Z,94829.88
2022-12-23T13:27:34.581Z,94829.16
2022-12-23T13:30:15.011Z,94836.50
2022-12-23T13:32:48.100Z,94830.84
2022-12-23T13:36:11.331Z,94818.28
2022-12-23T13:38:56.813Z,94824.41
2022-12-23T13:41:36.149Z,94830.63
2022-12-23T13:44:06.448Z,94832.53
2022-12-23T13:46:54.899Z,94835.88
2022-12-23T13:49:30.560Z,94828.28
2022-12-23T13:52:22.141Z,94833.38
2022-12-23T13:55:22.932Z,94825.88
2022-12-23T13:58:20.458Z,94831.09
2022-12-23T14:01:08.431Z,94832.44
2022-12-23T14:03:37.531Z,94822.38
2022-12-23T14:06:26.254Z,94831.50
2022-12-23T14:08:55.011Z,94832.44
2022-12-23T14:11:30.833Z,94828.41
2022-12-23T14:14:04.008Z,94838.09
2022-12-23T14:16:49.279Z,94837.91
2022-12-23T14:19:18.944Z,94850.84
2022-12-23T14:22:11.016Z,94845.44
2022-12-23T14:24:50.049Z,94843.38
2022-12-23T14:27:16.853Z,94842.38
2022-12-23T14:30:11.515Z,94834.78
2022-12-23T14:32:52.042Z,94845.47
2022-12-23T14:35:27.206Z,94842.75
2022-12-23T14:38:31.314Z,94839.72
2022-12-23T14:40:59.730Z,94841.34
2022-12-23T14:43:45.915Z,94849.28
2022-12-23T14:46:34.849Z,94853.19
2022-12-23T14:49:29.657Z,94851.91
2022-12-23T14:51:52.119Z,94860.16
2022-12-23T14:54:38.761Z,94855.63
2022-12-23T14:57:15.963Z,94857.28
2022-12-23T14:59:56.287Z,94863.59
2022-12-23T15:02:34.025Z,94856.34
2022-12-23T15:05:01.921Z,94862.16
2022-12-23T15:07:39.420Z,94868.00
2022-12-23T15:10:17.916Z,94859.28
2022-12-23T15:12:49.384Z,94866.38
2022-12-23T15:15:20.663Z,94868.81
2022-12-23T15:17:48.851Z,94862.00
2022-12-23T15:20:26.701Z,94870.91
2022-12-23T15:22:53.589Z,94878.66
2022-12-23T15:25:33.689Z,94876.41
2022-12-23T15:28:03.128Z,94887.84
2022-12-23T15:30:34.144Z,94890.09
2022-12-23T15:33:16.127Z,94894.13
2022-12-23T15:35:52.744Z,94885.72
2022-12-23T15:38:22.455Z,94881.97
2022-12-23T15:41:02.198Z,94892.47
2022-12-23T15:43:29.874Z,94884.84
2022-12-23T15:46:09.059Z,94889.88
2022-12-23T15:48:38.028Z,94894.06
2022-12-23T15:51:14.308Z,94889.06
2022-12-23T15:53:45.496Z,94894.84
2022-12-23T15:56:29.841Z,94900.38
2022-12-23T15:58:57.303Z,94896.81
2022-12-23T16:01:25.466Z,94880.81
2022-12-23T16:03:57.110Z,94900.41
2022-12-23T16:06:33.094Z,94895.72
2022-12-23T16:09:06.773Z,94890.88
2022-12-23T16:11:42.326Z,94893.97
2022-12-23T16:14:33.337Z,94889.09
2022-12-23T16:17:13.677Z,94890.88
2022-12-23T16:19:53.992Z,94890.06
2022-12-23T16:22:20.855Z,94889.41
2022-12-23T16:24:52.595Z,94884.72
2022-12-23T16:27:32.513Z,94882.13
2022-12-23T16:30:02.795Z,94898.59
2022-12-23T16:32:29.752Z,94894.38
2022-12-23T16:34:56.686Z,94899.53
2022-12-23T16:37:24.791Z,94897.94
2022-12-23T16:39:51.778Z,94886.59
2022-12-23T16:42:19.226Z,94897.06
2022-12-23T16:44:46.089Z,94890.44
2022-12-23T16:47:17.589Z,94904.66
2022-12-23T16:49:45.327Z,94902.09
2022-12-23T16:52:14.416Z,94917.88
2022-12-23T16:54:42.717Z,94920.63
2022-12-23T16:57:10.662Z,94915.59
2022-12-23T16:59:41.197Z,94920.75
2022-12-23T17:02:20.799Z,94922.31
2022-12-23T17:04:47.681Z,94919.22
2022-12-23T17:07:14.568Z,94923.06
2022-12-23T17:09:41.489Z,94921.47
2022-12-23T17:12:10.170Z,94925.31
2022-12-23T17:14:37.094Z,94919.94
2022-12-23T17:17:13.364Z,94925.06
2022-12-23T17:19:40.387Z,94926.25
2022-12-23T17:22:12.518Z,94927.78
2022-12-23T17:24:39.605Z,94936.78
2022-12-23T17:27:15.182Z,94939.63
2022-12-23T17:29:42.336Z,94925.47
2022-12-23T17:32:18.229Z,94935.00
2022-12-23T17:34:45.453Z,94939.84
2022-12-23T17:37:14.596Z,94933.56
2022-12-23T17:39:43.079Z,94936.75
2022-12-23T17:42:28.228Z,94936.75
2022-12-23T17:44:55.090Z,94938.47
2022-12-23T17:47:22.799Z,94953.75
2022-12-23T17:49:49.895Z,94949.03
2022-12-23T17:52:19.912Z,94949.59
2022-12-23T17:54:48.927Z,94952.03
2022-12-23T17:57:25.358Z,94946.34
2022-12-23T17:59:53.903Z,94956.09
2022-12-23T18:02:32.435Z,94957.31
2022-12-23T18:04:59.975Z,94955.03
2022-12-23T18:07:26.925Z,94959.91
2022-12-23T18:09:54.207Z,94956.94
2022-12-23T18:12:39.868Z,94955.34
2022-12-23T18:15:18.614Z,94964.69
2022-12-23T18:17:45.517Z,94965.34
2022-12-23T18:20:18.307Z,94965.59
2022-12-23T18:22:50.660Z,94961.56
2022-12-23T18:25:27.782Z,94967.75
2022-12-23T18:27:54.882Z,94959.78
2022-12-23T18:30:22.566Z,94968.28
2022-12-23T18:32:49.457Z,94963.69
2022-12-23T18:35:30.859Z,94964.63
2022-12-23T18:37:59.382Z,94971.91
2022-12-23T18:40:32.571Z,94972.28
2022-12-23T18:43:00.344Z,94976.72
2022-12-23T18:45:38.669Z,94979.81
2022-12-23T18:48:07.753Z,94981.28
2022-12-23T18:50:37.082Z,94989.66
2022-12-23T18:53:05.009Z,94972.22
2022-12-23T18:55:32.102Z,94973.28
2022-12-23T18:58:00.752Z,94982.06
2022-12-23T19:00:30.762Z,94980.81
2022-12-23T19:02:58.014Z,94974.34
2022-12-23T19:05:28.166Z,94962.13
2022-12-23T19:07:57.732Z,94970.41
2022-12-23T19:10:29.936Z,94964.84
2022-12-23T19:12:57.089Z,94968.47
2022-12-23T19:15:24.410Z,94959.66
2022-12-23T19:17:51.272Z,94962.50
2022-12-23T19:20:20.623Z,94968.00
2022-12-23T19:22:48.246Z,94970.56
2022-12-23T19:25:18.348Z,94968.38
2022-12-23T19:27:45.930Z,94973.88
2022-12-23T19:30:16.640Z,94964.72
2022-12-23T19:32:44.081Z,94952.38
2022-12-23T19:35:15.215Z,94959.38
2022-12-23T19:37:42.868Z,94948.19
2022-12-23T19:40:10.372Z,94948.94
2022-12-23T19:42:39.048Z,94944.59
2022-12-23T19:45:08.683Z,94954.84
2022-12-23T19:47:36.345Z,94956.78
2022-12-23T19:50:04.400Z,94959.16
2022-12-23T19:52:34.684Z,94965.19
2022-12-23T19:55:01.552Z,94964.22
2022-12-23T19:57:28.492Z,94969.69
2022-12-23T19:59:55.393Z,94970.06
2022-12-23T20:02:23.652Z,94967.16
2022-12-23T20:04:50.674Z,94967.69
2022-12-23T20:07:17.614Z,94971.28
2022-12-23T20:09:44.544Z,94973.97
2022-12-23T20:12:11.595Z,94974.22
2022-12-23T20:14:38.519Z,94987.00
2022-12-23T20:17:05.439Z,94983.06
2022-12-23T20:19:32.785Z,94976.81
2022-12-23T20:22:00.103Z,94977.75
2022-12-23T20:24:26.996Z,94979.84
2022-12-23T20:26:53.891Z,94979.16
2022-12-23T20:29:20.874Z,94969.88
2022-12-23T20:31:47.755Z,94982.91
2022-12-23T20:34:16.694Z,94992.56
2022-12-23T20:36:43.819Z,94988.59
2022-12-23T20:39:10.690Z,94980.63
2022-12-23T20:41:37.525Z,94979.00
2022-12-23T20:46:51.717Z,94996.88
2022-12-23T20:49:18.720Z,94990.19
2022-12-23T20:51:45.600Z,94993.19
2022-12-23T20:54:12.928Z,94994.81
2022-12-23T20:56:39.801Z,94999.69
2022-12-23T20:59:06.788Z,94979.81
2022-12-23T21:01:36.437Z,94986.44
2022-12-23T21:04:09.945Z,94998.88
2022-12-23T21:06:37.136Z,95001.44
2022-12-23T21:09:05.965Z,94997.38
2022-12-23T21:11:36.335Z,94994.56
2022-12-23T21:14:06.831Z,94989.00
2022-12-23T21:16:35.492Z,94992.00
2022-12-23T21:19:03.151Z,94993.75
2022-12-23T21:21:32.012Z,94984.91
2022-12-23T21:24:02.390Z,94994.09
2022-12-23T21:26:34.668Z,94991.09
2022-12-23T21:29:16.210Z,94981.53
2022-12-23T21:31:49.142Z,94989.31
2022-12-23T21:34:25.835Z,94985.00
2022-12-23T21:37:06.825Z,94982.44
2022-12-23T21:39:54.614Z,94987.19
2022-12-23T21:42:26.564Z,94970.13
2022-12-23T21:44:53.492Z,94985.94
2022-12-23T21:47:20.406Z,94972.44
2022-12-23T21:49:47.406Z,94979.09
2022-12-23T21:52:14.624Z,94977.56
2022-12-23T21:54:41.516Z,94968.88
2022-12-23T21:57:08.416Z,94972.66
2022-12-23T21:59:35.759Z,94978.50
2022-12-23T22:02:02.768Z,94974.53
2022-12-23T22:04:29.633Z,94971.03
2022-12-23T22:06:56.582Z,94966.63
2022-12-23T22:09:24.688Z,94960.13
2022-12-23T22:11:52.712Z,94970.00
2022-12-23T22:14:19.934Z,94971.53
2022-12-23T22:16:47.211Z,94962.22
2022-12-23T22:19:14.264Z,94956.19
2022-12-23T22:21:42.867Z,94958.97
2022-12-23T22:24:10.229Z,94962.69
2022-12-23T22:26:37.500Z,94971.25
2022-12-23T22:29:06.224Z,94975.66
2022-12-23T22:31:38.372Z,94975.66
2022-12-23T22:34:06.302Z,94976.72
2022-12-23T22:36:34.294Z,94976.25
2022-12-23T22:39:02.243Z,94968.47
2022-12-23T22:41:30.091Z,94970.91
2022-12-23T22:43:57.281Z,94971.75
2022-12-23T22:46:24.940Z,94973.81
2022-12-23T22:48:52.558Z,94978.63
2022-12-23T22:51:23.607Z,94992.34
2022-12-23T22:53:50.562Z,94990.69
2022-12-23T22:56:18.940Z,94968.41
2022-12-23T22:58:45.853Z,94980.03
